Time;durP1;ratioP1;P1;durP2;ratioP2;P2;SDS_P1;SDS_P2;PMS_P1;PMS_P2;Temp;Humidity;BMP_temperature;BMP_pressure;BME280_temperature;BME280_humidity;BME280_pressure;Samples;Min_cycle;Max_cycle;Signal;HPM_P1;HPM_P2
2021/12/03 00:02:03;;;;;;;6.40;3.38;;;;;;;7.69;66.79;93345.59;5013007;28;20118;-86
2021/12/03 00:04:29;;;;;;;4.10;2.05;;;;;;;8.49;64.70;93333.22;4981192;28;20050;-86
2021/12/03 00:06:55;;;;;;;18.35;10.35;;;;;;;9.32;64.03;93356.72;4977117;28;20491;-86
2021/12/03 00:09:21;;;;;;;19.42;10.68;;;;;;;8.70;63.25;93289.56;4975749;28;20031;-85
2021/12/03 00:11:46;;;;;;;4.13;2.53;;;;;;;8.96;62.31;93335.84;4978509;28;20130;-85
2021/12/03 00:14:12;;;;;;;8.45;2.10;;;;;;;9.01;62.18;93322.78;4979533;28;20101;-85
2021/12/03 00:16:37;;;;;;;6.28;3.08;;;;;;;8.21;64.96;93309.78;5012553;28;20022;-85
2021/12/03 00:19:03;;;;;;;3.22;1.70;;;;;;;8.56;65.04;93370.56;4981325;28;20023;-86
2021/12/03 00:21:29;;;;;;;3.35;2.08;;;;;;;8.67;64.15;93342.72;5012510;28;20459;-85
2021/12/03 00:23:54;;;;;;;4.82;1.90;;;;;;;8.98;62.91;93361.69;4978856;28;20023;-86
2021/12/03 00:26:20;;;;;;;7.35;2.10;;;;;;;9.39;61.93;93350.00;4979426;28;20041;-85
2021/12/03 00:28:46;;;;;;;2.88;1.70;;;;;;;9.29;61.82;93317.13;4986653;28;20419;-86
2021/12/03 00:31:12;;;;;;;9.18;1.90;;;;;;;9.49;60.90;93334.91;5027392;28;20026;-87
2021/12/03 00:33:38;;;;;;;5.13;1.52;;;;;;;9.81;59.36;93316.09;5028340;28;20077;-85
2021/12/03 00:36:06;;;;;;;4.78;1.90;;;;;;;9.66;59.84;93331.31;4993939;28;20023;-86
2021/12/03 00:38:46;;;;;;;3.88;1.80;;;;;;;9.63;60.24;93339.19;4989367;28;20050;-88
2021/12/03 00:41:19;;;;;;;6.38;2.63;;;;;;;9.17;60.53;93386.88;5024144;28;20187;-87
2021/12/03 00:43:47;;;;;;;8.63;2.10;;;;;;;10.14;57.76;93357.59;4988108;28;20098;-87
2021/12/03 00:46:15;;;;;;;5.82;3.28;;;;;;;8.67;61.53;93352.78;4975594;28;20031;-87
2021/12/03 00:48:42;;;;;;;5.25;3.03;;;;;;;8.42;63.67;93355.38;4976027;28;20034;-88
2021/12/03 00:51:09;;;;;;;6.38;2.60;;;;;;;8.70;63.25;93371.47;5006930;28;20113;-87
2021/12/03 00:53:35;;;;;;;4.60;2.15;;;;;;;8.93;63.46;93328.75;4975345;28;20027;-87
2021/12/03 00:56:03;;;;;;;4.88;2.40;;;;;;;8.78;62.85;93341.88;4976506;28;20022;-88
2021/12/03 00:58:28;;;;;;;3.63;2.63;;;;;;;8.36;64.43;93333.03;4976767;28;20054;-88
2021/12/03 01:00:54;;;;;;;4.38;2.00;;;;;;;8.48;64.96;93341.84;4976325;28;20018;-87
2021/12/03 01:03:20;;;;;;;6.80;2.30;;;;;;;8.60;64.92;93349.41;4976174;28;20030;-88
2021/12/03 01:05:46;;;;;;;3.47;2.00;;;;;;;8.93;63.64;93331.47;4976540;28;20105;-88
2021/12/03 01:08:11;;;;;;;3.78;1.95;;;;;;;8.83;64.36;93343.81;4974946;28;20086;-89
2021/12/03 01:10:37;;;;;;;3.33;2.15;;;;;;;9.18;63.32;93358.56;4976312;28;20057;-89
2021/12/03 01:13:03;;;;;;;5.28;1.77;;;;;;;9.30;62.49;93351.81;4975363;28;20026;-90
2021/12/03 01:15:31;;;;;;;5.10;1.60;;;;;;;9.66;61.43;93336.72;4975866;28;20027;-90
2021/12/03 01:17:58;;;;;;;6.18;1.55;;;;;;;9.55;61.55;93327.44;4975164;28;20093;-90
2021/12/03 01:20:24;;;;;;;5.88;2.38;;;;;;;9.16;61.82;93336.66;4974080;28;20027;-88
2021/12/03 01:22:51;;;;;;;4.80;2.60;;;;;;;8.65;63.75;93293.06;4974874;28;20084;-90
2021/12/03 01:25:19;;;;;;;6.13;2.30;;;;;;;8.35;65.75;93343.09;4975054;28;20030;-89
2021/12/03 01:27:45;;;;;;;3.63;1.50;;;;;;;9.12;64.57;93292.91;4977760;28;20031;-88
2021/12/03 01:30:13;;;;;;;5.45;1.25;;;;;;;9.57;62.40;93324.97;5010187;28;20038;-89
2021/12/03 01:32:39;;;;;;;2.28;1.50;;;;;;;9.71;62.09;93285.19;4978659;28;20396;-88
2021/12/03 01:35:07;;;;;;;1.73;1.10;;;;;;;10.04;60.61;93359.19;4978552;28;20038;-87
2021/12/03 01:37:32;;;;;;;1.45;1.00;;;;;;;10.22;59.53;93321.78;4978932;28;20026;-88
2021/12/03 01:39:58;;;;;;;2.20;1.27;;;;;;;10.22;59.75;93303.53;4978477;28;20346;-89
2021/12/03 01:42:24;;;;;;;2.83;1.30;;;;;;;9.89;60.79;93294.56;4978504;28;20031;-88
2021/12/03 01:44:49;;;;;;;4.47;1.35;;;;;;;10.03;60.10;93306.22;4978335;28;20349;-87
2021/12/03 01:47:15;;;;;;;3.05;1.27;;;;;;;10.11;59.90;93322.66;4978175;28;20041;-87
2021/12/03 01:49:41;;;;;;;2.70;1.20;;;;;;;10.38;59.04;93336.41;4978180;28;20038;-87
2021/12/03 01:52:07;;;;;;;3.05;1.10;;;;;;;10.34;58.79;93298.69;5010265;28;20476;-87
2021/12/03 01:54:32;;;;;;;2.45;0.90;;;;;;;10.29;58.64;93302.97;5010469;28;20023;-87
2021/12/03 01:56:58;;;;;;;2.13;1.20;;;;;;;10.10;59.37;93270.44;4986836;28;20034;-87
2021/12/03 01:59:23;;;;;;;2.28;1.10;;;;;;;10.16;59.23;93273.06;4991362;28;20057;-87
2021/12/03 02:01:49;;;;;;;1.33;1.00;;;;;;;9.89;60.06;93267.47;4990975;28;20027;-87
2021/12/03 02:04:15;;;;;;;2.90;1.35;;;;;;;9.77;60.92;93250.63;4978287;28;20530;-86
2021/12/03 02:06:41;;;;;;;4.80;1.35;;;;;;;10.24;58.82;93279.34;5009853;28;20467;-87
2021/12/03 02:09:07;;;;;;;4.28;1.20;;;;;;;10.28;59.07;93296.06;4978565;28;20170;-88
2021/12/03 02:11:33;;;;;;;2.97;1.00;;;;;;;10.14;59.55;93264.69;5009452;28;20058;-88
2021/12/03 02:13:59;;;;;;;1.60;1.10;;;;;;;10.15;59.84;93282.44;4977950;28;20088;-88
2021/12/03 02:16:25;;;;;;;2.42;0.95;;;;;;;10.35;58.65;93275.78;4978606;28;20472;-88
2021/12/03 02:18:51;;;;;;;3.10;1.20;;;;;;;10.20;59.29;93278.16;4978156;28;20035;-88
2021/12/03 02:21:18;;;;;;;1.80;1.00;;;;;;;10.50;58.15;93291.59;4977976;28;20030;-87
2021/12/03 02:23:44;;;;;;;2.05;1.17;;;;;;;10.29;58.86;93237.13;4978053;28;20450;-87
2021/12/03 02:26:11;;;;;;;1.30;1.15;;;;;;;10.38;58.18;93299.16;4977892;28;20464;-86
2021/12/03 02:28:40;;;;;;;3.85;1.40;;;;;;;10.35;58.66;93272.31;4978227;28;20022;-87
2021/12/03 02:31:06;;;;;;;3.22;1.17;;;;;;;10.62;57.50;93257.63;5009111;28;20037;-86
2021/12/03 02:33:33;;;;;;;6.85;1.60;;;;;;;10.30;58.73;93296.25;4977527;28;20075;-86
2021/12/03 02:35:59;;;;;;;1.60;1.17;;;;;;;10.54;58.03;93254.06;4977406;28;20027;-87
2021/12/03 02:38:26;;;;;;;1.40;1.10;;;;;;;10.11;58.97;93235.91;4975414;28;20368;-86
2021/12/03 02:40:53;;;;;;;7.03;1.33;;;;;;;10.56;57.30;93253.53;4977230;28;20452;-84
2021/12/03 02:43:19;;;;;;;5.03;1.63;;;;;;;10.42;57.86;93255.47;4978090;28;20020;-84
2021/12/03 02:45:45;;;;;;;2.05;1.20;;;;;;;10.68;57.35;93281.25;4981523;28;20031;-84
2021/12/03 02:48:10;;;;;;;7.35;1.27;;;;;;;10.67;57.09;93298.75;4982992;28;20035;-83
2021/12/03 02:50:37;;;;;;;4.07;1.27;;;;;;;10.77;56.40;93269.97;4986062;28;20019;-84
2021/12/03 02:53:04;;;;;;;3.17;1.45;;;;;;;10.71;56.99;93291.78;4985477;28;20030;-83
2021/12/03 02:55:30;;;;;;;5.78;1.30;;;;;;;10.58;57.85;93249.06;4986046;28;20022;-83
2021/12/03 02:57:56;;;;;;;2.38;1.23;;;;;;;10.18;58.92;93275.97;5009397;28;20037;-84
2021/12/03 03:00:25;;;;;;;2.80;1.17;;;;;;;10.43;58.67;93292.94;4977480;28;20034;-84
2021/12/03 03:02:51;;;;;;;8.27;1.90;;;;;;;10.29;58.58;93302.22;4977995;28;20022;-84
2021/12/03 03:05:18;;;;;;;3.58;1.50;;;;;;;10.30;58.73;93257.59;4976694;28;20041;-84
2021/12/03 03:07:44;;;;;;;2.40;1.40;;;;;;;10.29;59.07;93305.66;4975643;28;20031;-84
2021/12/03 03:10:14;;;;;;;4.72;1.73;;;;;;;10.23;58.31;93320.53;4976515;28;20022;-83
2021/12/03 03:12:41;;;;;;;4.10;1.90;;;;;;;9.68;60.28;93272.66;4977278;28;20026;-83
2021/12/03 03:15:09;;;;;;;3.22;1.67;;;;;;;9.48;61.71;93317.91;4976417;28;20027;-83
2021/12/03 03:17:35;;;;;;;5.20;1.95;;;;;;;9.78;60.01;93302.84;4976594;28;20065;-84
2021/12/03 03:20:02;;;;;;;3.33;1.50;;;;;;;9.93;59.90;93322.13;4976346;28;20023;-84
2021/12/03 03:22:28;;;;;;;2.03;1.27;;;;;;;9.80;60.10;93287.53;4976242;28;20037;-83
2021/12/03 03:24:59;;;;;;;3.20;1.40;;;;;;;9.79;60.50;93304.31;4976318;28;20027;-84
2021/12/03 03:27:26;;;;;;;5.50;1.58;;;;;;;9.70;60.47;93310.78;4976240;28;20023;-84
2021/12/03 03:29:53;;;;;;;2.70;1.80;;;;;;;9.50;61.63;93293.03;4975931;28;20132;-84
2021/12/03 03:32:19;;;;;;;2.88;1.55;;;;;;;9.51;61.84;93316.16;4976088;28;20521;-84
2021/12/03 03:34:45;;;;;;;3.47;1.55;;;;;;;9.50;61.58;93319.38;4976038;28;20034;-85
2021/12/03 03:37:11;;;;;;;4.13;1.73;;;;;;;9.45;61.58;93301.97;5007526;28;20491;-84
2021/12/03 03:39:37;;;;;;;2.33;1.70;;;;;;;9.42;61.77;93313.78;5007983;28;20022;-84
2021/12/03 03:42:02;;;;;;;1.90;1.42;;;;;;;9.03;63.00;93306.78;4976970;28;20354;-84
2021/12/03 03:44:28;;;;;;;2.40;1.70;;;;;;;8.90;63.97;93293.84;4982934;28;20031;-83
2021/12/03 03:46:55;;;;;;;2.97;1.77;;;;;;;9.17;63.08;93294.09;4988053;28;20067;-84
2021/12/03 03:49:22;;;;;;;3.75;1.60;;;;;;;9.43;61.99;93309.84;4984969;28;20045;-85
2021/12/03 03:51:50;;;;;;;4.18;1.90;;;;;;;9.02;63.51;93316.13;4977887;28;20534;-85
2021/12/03 03:54:15;;;;;;;5.10;2.03;;;;;;;8.78;64.16;93312.13;4974626;28;20046;-85
2021/12/03 03:56:42;;;;;;;6.28;2.20;;;;;;;8.62;65.00;93298.22;4974510;28;20030;-85
2021/12/03 03:59:07;;;;;;;7.53;2.15;;;;;;;8.52;65.58;93343.06;4975674;28;20026;-84
2021/12/03 04:01:33;;;;;;;4.95;1.98;;;;;;;8.55;64.94;93301.47;4975576;28;20041;-85
2021/12/03 04:03:59;;;;;;;4.20;1.80;;;;;;;8.43;65.15;93341.34;4975565;28;20041;-85
2021/12/03 04:06:24;;;;;;;3.95;1.90;;;;;;;8.49;64.60;93300.78;4975283;28;20113;-85
2021/12/03 04:08:50;;;;;;;6.72;2.00;;;;;;;8.27;65.87;93302.34;4974677;28;20376;-84
2021/12/03 04:11:20;;;;;;;6.07;2.50;;;;;;;8.43;66.12;93319.00;4975173;28;20035;-84
2021/12/03 04:13:45;;;;;;;3.53;2.08;;;;;;;8.87;63.79;93325.34;4975181;28;20019;-85
2021/12/03 04:16:11;;;;;;;6.47;1.88;;;;;;;9.02;63.37;93319.56;4975392;28;20042;-85
2021/12/03 04:18:37;;;;;;;4.43;2.00;;;;;;;8.85;64.06;93318.97;5006653;28;20031;-85
2021/12/03 04:21:03;;;;;;;2.70;1.70;;;;;;;8.99;63.69;93314.44;4975802;28;20026;-84
2021/12/03 04:23:28;;;;;;;4.80;1.90;;;;;;;8.70;64.27;93320.06;4975394;28;20108;-85
2021/12/03 04:25:54;;;;;;;4.97;2.10;;;;;;;8.78;64.03;93298.59;4974973;28;20031;-85
2021/12/03 04:28:21;;;;;;;4.90;2.30;;;;;;;8.75;64.77;93288.78;4974255;28;20041;-86
2021/12/03 04:30:48;;;;;;;3.92;1.92;;;;;;;9.04;64.04;93319.81;4975641;28;20049;-85
2021/12/03 04:33:13;;;;;;;3.75;1.80;;;;;;;9.03;63.01;93298.66;4974880;28;20387;-85
2021/12/03 04:35:39;;;;;;;3.10;1.92;;;;;;;8.48;65.26;93288.50;5006432;28;20109;-86
2021/12/03 04:38:06;;;;;;;6.82;2.40;;;;;;;8.31;66.85;93350.03;4974809;28;20113;-85
2021/12/03 04:40:33;;;;;;;9.20;2.38;;;;;;;8.42;66.25;93349.94;4974991;28;20457;-85
2021/12/03 04:42:59;;;;;;;3.42;1.67;;;;;;;8.44;65.77;93321.19;4974114;28;20042;-85
2021/12/03 04:45:29;;;;;;;4.55;2.50;;;;;;;8.33;66.22;93326.66;4975053;28;20030;-84
2021/12/03 04:47:56;;;;;;;3.53;2.28;;;;;;;8.67;65.03;93326.50;4975147;28;20349;-84
2021/12/03 04:50:25;;;;;;;3.85;2.45;;;;;;;8.28;67.00;93330.84;4975741;28;20101;-84
2021/12/03 04:52:51;;;;;;;7.57;2.35;;;;;;;8.33;65.77;93336.72;4981936;28;20057;-84
2021/12/03 04:55:18;;;;;;;3.58;2.30;;;;;;;8.19;65.99;93344.66;4981403;28;20102;-84
2021/12/03 04:57:44;;;;;;;5.00;2.47;;;;;;;8.12;67.49;93356.72;4976594;28;20022;-84
2021/12/03 05:00:32;;;;;;;4.97;2.58;;;;;;;8.18;67.67;93320.84;4974836;28;20376;-84
2021/12/03 05:02:59;;;;;;;4.85;2.55;;;;;;;8.08;67.80;93306.88;4980914;28;20026;-84
2021/12/03 05:05:30;;;;;;;7.05;2.70;;;;;;;8.33;67.00;93342.13;4980302;28;20388;-84
2021/12/03 05:07:58;;;;;;;5.55;2.38;;;;;;;8.41;67.28;93353.88;4981316;28;20014;-84
2021/12/03 05:10:33;;;;;;;5.93;2.00;;;;;;;8.57;66.12;93331.44;4980896;28;20031;-85
2021/12/03 05:13:04;;;;;;;5.78;2.28;;;;;;;8.62;66.41;93317.16;4981092;28;20023;-85
2021/12/03 05:15:30;;;;;;;4.40;1.92;;;;;;;8.60;65.05;93371.03;4981159;28;20037;-84
2021/12/03 05:17:55;;;;;;;5.00;2.25;;;;;;;8.65;65.03;93360.69;4980798;28;20031;-84
2021/12/03 05:20:21;;;;;;;11.45;2.20;;;;;;;8.58;64.05;93367.34;4979844;28;20041;-85
2021/12/03 05:22:47;;;;;;;6.85;2.85;;;;;;;8.60;64.45;93371.03;4980827;28;20498;-84
2021/12/03 05:25:12;;;;;;;5.53;2.10;;;;;;;8.79;63.60;93359.59;4980747;28;20027;-84
2021/12/03 05:27:39;;;;;;;7.32;2.38;;;;;;;8.67;64.71;93377.88;4980897;28;20036;-85
2021/12/03 05:30:06;;;;;;;6.88;2.40;;;;;;;8.73;64.70;93339.97;4980782;28;20102;-85
2021/12/03 05:32:31;;;;;;;5.20;2.25;;;;;;;8.85;64.24;93383.91;4980392;28;20105;-85
2021/12/03 05:34:57;;;;;;;3.58;2.20;;;;;;;8.98;64.02;93381.34;4980753;28;20027;-85
2021/12/03 05:37:22;;;;;;;3.55;1.90;;;;;;;9.06;63.83;93365.31;4980820;28;20042;-84
2021/12/03 05:39:47;;;;;;;2.28;1.75;;;;;;;9.13;63.53;93365.50;4979951;28;20110;-85
2021/12/03 05:42:13;;;;;;;3.03;2.00;;;;;;;9.25;63.00;93408.72;5012509;28;20023;-84
2021/12/03 05:44:38;;;;;;;5.03;1.70;;;;;;;9.31;63.47;93387.72;4980749;28;20092;-83
2021/12/03 05:47:04;;;;;;;3.53;1.88;;;;;;;9.33;63.12;93392.66;5012030;28;20460;-84
2021/12/03 05:49:30;;;;;;;6.28;2.67;;;;;;;9.28;63.43;93375.97;4981002;28;20081;-84
2021/12/03 05:51:56;;;;;;;6.38;1.90;;;;;;;9.03;64.80;93393.38;4980772;28;20396;-84
2021/12/03 05:54:22;;;;;;;7.15;2.58;;;;;;;9.16;64.49;93396.22;4980465;28;20384;-84
2021/12/03 05:56:48;;;;;;;8.45;2.22;;;;;;;8.96;65.55;93400.78;4981011;28;20031;-84
2021/12/03 05:59:14;;;;;;;5.32;2.10;;;;;;;9.02;65.60;93386.50;4980698;28;20033;-81
2021/12/03 06:01:40;;;;;;;4.13;1.80;;;;;;;9.09;66.14;93348.81;4980952;28;20037;-85
2021/12/03 06:04:05;;;;;;;4.00;1.40;;;;;;;9.48;64.67;93414.69;5012817;28;20085;-85
2021/12/03 06:06:31;;;;;;;4.63;1.13;;;;;;;9.86;63.88;93344.38;4979975;28;20109;-81
2021/12/03 06:08:58;;;;;;;3.67;1.40;;;;;;;9.80;63.96;93335.56;4980846;28;20527;-85
2021/12/03 06:11:24;;;;;;;4.70;1.08;;;;;;;10.26;63.18;93385.31;5012513;28;20037;-82
2021/12/03 06:13:50;;;;;;;4.05;1.35;;;;;;;10.25;63.19;93372.25;4977833;28;20503;-86
2021/12/03 06:16:16;;;;;;;4.03;1.27;;;;;;;10.34;62.77;93420.00;4980596;28;20030;-87
2021/12/03 06:18:41;;;;;;;4.13;1.40;;;;;;;10.35;62.89;93386.22;4981428;28;20027;-87
2021/12/03 06:21:09;;;;;;;4.40;1.38;;;;;;;10.41;62.14;93422.16;5009504;28;20494;-89
2021/12/03 06:23:34;;;;;;;6.63;1.90;;;;;;;10.40;59.65;93404.41;4977797;28;20023;-88
2021/12/03 06:26:00;;;;;;;6.38;2.03;;;;;;;10.52;60.14;93405.72;4978028;28;20516;-88
2021/12/03 06:28:28;;;;;;;6.22;1.50;;;;;;;10.67;60.49;93389.03;5009724;28;20029;-88
2021/12/03 06:30:54;;;;;;;3.60;1.23;;;;;;;10.42;61.37;93383.66;4977909;28;20026;-88
2021/12/03 06:33:20;;;;;;;3.17;1.60;;;;;;;10.52;60.55;93416.59;4977988;28;20131;-88
2021/12/03 06:35:49;;;;;;;6.03;2.08;;;;;;;10.56;61.46;93389.91;4978493;28;20468;-88
2021/12/03 06:38:16;;;;;;;5.35;2.28;;;;;;;10.53;61.55;93434.34;4978157;28;20031;-88
2021/12/03 06:40:42;;;;;;;8.77;3.17;;;;;;;10.47;61.60;93410.00;4978751;28;20487;-88
2021/12/03 06:43:08;;;;;;;5.35;1.52;;;;;;;10.58;61.48;93403.69;4978135;28;20035;-87
2021/12/03 06:45:34;;;;;;;9.30;3.00;;;;;;;10.59;61.47;93402.47;4979106;28;20041;-83
2021/12/03 06:47:59;;;;;;;5.18;1.90;;;;;;;10.54;61.42;93422.25;4976906;28;20050;-82
2021/12/03 06:50:25;;;;;;;3.65;1.60;;;;;;;10.88;60.44;93427.22;4976886;28;20064;-82
2021/12/03 06:53:03;;;;;;;7.53;2.13;;;;;;;10.81;60.64;93463.09;4976364;28;20023;-81
2021/12/03 06:55:37;;;;;;;5.22;2.15;;;;;;;10.39;62.04;93433.50;4976675;28;20042;-81
2021/12/03 06:58:03;;;;;;;5.50;2.13;;;;;;;10.60;60.72;93420.19;4976730;28;20034;-83
2021/12/03 07:00:29;;;;;;;8.00;1.80;;;;;;;10.63;61.43;93430.03;4976165;28;20468;-82
2021/12/03 07:02:54;;;;;;;2.78;1.10;;;;;;;10.56;60.94;93438.72;4977560;28;20054;-88
2021/12/03 07:05:20;;;;;;;5.68;1.42;;;;;;;10.67;60.74;93396.44;4985507;28;20035;-86
2021/12/03 07:07:46;;;;;;;5.57;2.10;;;;;;;11.06;60.31;93441.31;4985864;28;20037;-88
2021/12/03 07:10:12;;;;;;;7.47;2.05;;;;;;;10.75;60.74;93417.03;4977588;28;20031;-81
2021/12/03 07:12:38;;;;;;;3.55;1.60;;;;;;;10.54;61.35;93407.94;4979042;28;20031;-86
2021/12/03 07:15:13;;;;;;;4.07;1.60;;;;;;;10.54;60.55;93414.09;5009922;28;20054;-83
2021/12/03 07:17:39;;;;;;;5.30;2.10;;;;;;;10.51;60.46;93400.81;4976704;28;20404;-85
2021/12/03 07:20:05;;;;;;;13.00;1.40;;;;;;;10.73;61.39;93400.53;4976917;28;20026;-84
2021/12/03 07:22:33;;;;;;;5.53;1.58;;;;;;;11.11;60.42;93416.78;4976958;28;20038;-85
2021/12/03 07:24:58;;;;;;;9.63;3.30;;;;;;;11.39;59.10;93415.63;4975922;28;20110;-81
2021/12/03 07:27:25;;;;;;;5.10;1.50;;;;;;;11.15;59.74;93427.34;4975696;28;20458;-83
2021/12/03 07:29:51;;;;;;;7.43;2.65;;;;;;;11.23;59.64;93451.91;4975889;28;20023;-84
2021/12/03 07:32:18;;;;;;;4.32;1.90;;;;;;;11.32;59.04;93427.81;4975867;28;20096;-81
2021/12/03 07:34:45;;;;;;;4.43;1.85;;;;;;;11.29;58.39;93376.53;4974536;28;20041;-82
2021/12/03 07:37:10;;;;;;;5.00;1.60;;;;;;;11.11;59.46;93433.06;4976150;28;20030;-80
2021/12/03 07:39:36;;;;;;;9.30;1.67;;;;;;;11.46;58.31;93406.13;4975644;28;20065;-78
2021/12/03 07:42:03;;;;;;;7.35;2.75;;;;;;;11.94;56.12;93422.63;4975812;28;20205;-79
2021/12/03 07:44:28;;;;;;;5.07;2.20;;;;;;;11.87;56.48;93434.13;4976167;28;20048;-76
2021/12/03 07:46:54;;;;;;;13.50;2.22;;;;;;;12.30;55.68;93442.00;4976797;28;20534;-75
2021/12/03 07:49:21;;;;;;;6.88;1.80;;;;;;;13.16;53.20;93414.50;5010525;28;20019;-77
2021/12/03 07:51:47;;;;;;;11.02;1.25;;;;;;;13.31;51.80;93449.34;4975470;28;20071;-74
2021/12/03 07:54:12;;;;;;;4.07;1.70;;;;;;;13.84;51.06;93434.03;4975347;28;20470;-76
2021/12/03 07:56:38;;;;;;;4.38;1.42;;;;;;;13.77;50.53;93431.94;4975719;28;20069;-77
2021/12/03 07:59:04;;;;;;;7.35;2.03;;;;;;;13.95;49.40;93417.38;4975225;28;20023;-80
2021/12/03 08:01:30;;;;;;;4.63;1.80;;;;;;;13.80;50.50;93469.06;4975264;28;20027;-83
2021/12/03 08:03:56;;;;;;;7.57;1.20;;;;;;;13.62;49.73;93444.22;4975244;28;20034;-80
2021/12/03 08:06:22;;;;;;;6.57;1.60;;;;;;;13.44;51.67;93426.06;4975100;28;20368;-81
2021/12/03 08:08:48;;;;;;;7.30;2.75;;;;;;;13.79;50.18;93475.78;4974216;28;20480;-79
2021/12/03 08:11:13;;;;;;;10.60;1.40;;;;;;;14.07;49.26;93453.28;4974838;28;20026;-81
2021/12/03 08:13:39;;;;;;;4.88;1.60;;;;;;;13.99;49.16;93529.59;4974089;28;20019;-78
2021/12/03 08:16:05;;;;;;;3.53;1.27;;;;;;;14.02;48.80;93490.31;4975356;28;20101;-80
2021/12/03 08:18:30;;;;;;;5.70;1.30;;;;;;;14.63;50.12;93462.00;4975311;28;20037;-75
2021/12/03 08:20:56;;;;;;;9.88;2.00;;;;;;;15.18;49.62;93479.34;4974839;28;20077;-75
2021/12/03 08:23:22;;;;;;;6.05;1.52;;;;;;;15.28;47.21;93474.06;4975039;28;20030;-75
2021/12/03 08:25:48;;;;;;;8.00;1.65;;;;;;;14.62;48.25;93446.84;4974839;28;20306;-74
2021/12/03 08:28:14;;;;;;;9.23;1.55;;;;;;;14.82;46.87;93477.38;4974769;28;20123;-73
2021/12/03 08:30:39;;;;;;;4.65;1.38;;;;;;;13.64;50.38;93455.28;4974105;28;20049;-77
2021/12/03 08:33:05;;;;;;;5.05;1.20;;;;;;;13.85;49.32;93471.66;4974885;28;20042;-76
2021/12/03 08:35:31;;;;;;;5.00;1.23;;;;;;;14.09;48.26;93450.00;4976396;28;20034;-85
2021/12/03 08:37:57;;;;;;;8.90;1.65;;;;;;;14.01;48.40;93445.22;5008562;28;20384;-78
2021/12/03 08:40:24;;;;;;;3.95;1.02;;;;;;;13.52;48.99;93426.84;4979106;28;20061;-76
2021/12/03 08:42:50;;;;;;;5.25;1.50;;;;;;;13.73;48.91;93481.38;4975824;28;20023;-84
2021/12/03 08:45:17;;;;;;;5.05;1.00;;;;;;;13.49;50.15;93474.97;4974981;28;20396;-66
2021/12/03 08:47:46;;;;;;;5.60;1.05;;;;;;;13.50;51.02;93380.34;4974441;28;20464;-68
2021/12/03 08:50:17;;;;;;;9.05;1.35;;;;;;;13.49;51.30;93414.28;4975232;28;20209;-70
2021/12/03 08:55:11;;;;;;;3.53;1.50;;;;;;;13.61;51.56;93470.00;4974568;28;20029;-69
2021/12/03 08:57:36;;;;;;;12.32;1.20;;;;;;;12.97;52.23;93411.25;4974169;28;20027;-69
2021/12/03 09:00:07;;;;;;;6.80;1.50;;;;;;;12.89;52.30;93486.66;4974305;28;20185;-69
2021/12/03 09:02:33;;;;;;;4.38;1.20;;;;;;;13.35;50.51;93432.69;4974251;28;20033;-69
2021/12/03 09:04:58;;;;;;;16.63;1.48;;;;;;;13.63;51.50;93467.47;4974084;28;20018;-68
2021/12/03 09:07:24;;;;;;;7.75;1.13;;;;;;;13.80;49.44;93491.59;4974008;28;20355;-69
2021/12/03 09:09:49;;;;;;;5.80;1.75;;;;;;;13.73;49.79;93491.53;4974686;28;20372;-69
2021/12/03 09:12:15;;;;;;;3.72;1.50;;;;;;;13.47;50.54;93493.09;4974396;28;20089;-68
2021/12/03 09:23:11;;;;;;;10.15;1.80;;;;;;;13.28;49.99;93472.19;4974747;28;20073;-69
2021/12/03 09:25:44;;;;;;;8.48;1.15;;;;;;;13.14;51.02;93478.94;4973865;28;20022;-77
2021/12/03 09:28:12;;;;;;;3.65;0.98;;;;;;;12.65;50.89;93437.38;4973923;28;20027;-76
2021/12/03 09:30:41;;;;;;;8.85;1.25;;;;;;;12.95;50.67;93436.28;4974401;28;20034;-75
2021/12/03 09:33:10;;;;;;;13.48;1.40;;;;;;;12.71;51.38;93415.50;4973920;28;20190;-77
2021/12/03 09:35:48;;;;;;;7.43;1.70;;;;;;;12.96;51.15;93454.06;5005294;28;20022;-76
2021/12/03 09:38:14;;;;;;;10.23;2.03;;;;;;;12.78;51.21;93420.28;4974266;28;20031;-75
2021/12/03 09:40:41;;;;;;;7.88;1.75;;;;;;;12.60;51.50;93451.81;4974862;28;20027;-76
2021/12/03 09:43:07;;;;;;;8.30;1.88;;;;;;;12.60;51.75;93429.34;4974308;28;20027;-76
2021/12/03 09:45:34;;;;;;;9.13;2.05;;;;;;;12.99;51.34;93463.91;4972830;28;20035;-76
2021/12/03 09:48:05;;;;;;;9.13;1.58;;;;;;;12.62;50.17;93418.66;4975318;28;20029;-76
2021/12/03 09:50:31;;;;;;;7.03;1.27;;;;;;;12.53;50.31;93436.16;4978121;28;20018;-76
2021/12/03 09:53:11;;;;;;;12.73;1.60;;;;;;;12.62;49.64;93454.75;4977505;28;20133;-77
2021/12/03 09:55:36;;;;;;;8.27;1.23;;;;;;;12.93;48.77;93479.63;4977632;28;20110;-78
2021/12/03 10:03:26;;;;;;;11.85;1.40;;;;;;;13.04;49.53;93453.44;4977632;28;20093;-76
2021/12/03 10:14:45;;;;;;;9.32;1.55;;;;;;;13.31;48.00;93448.63;4977433;28;20091;-78
2021/12/03 10:34:40;;;;;;;5.53;1.45;;;;;;;13.64;48.51;93425.31;4976828;28;20050;-77
2021/12/03 10:45:04;;;;;;;7.03;1.00;;;;;;;13.29;48.48;93449.16;4978553;28;20041;-78
2021/12/03 10:49:59;;;;;;;11.05;1.25;;;;;;;13.85;48.09;93378.22;4976687;28;20031;-78
2021/12/03 10:52:37;;;;;;;7.95;1.42;;;;;;;13.82;47.94;93431.81;4977003;28;20026;-78
2021/12/03 10:57:58;;;;;;;7.53;1.00;;;;;;;13.45;48.26;93446.59;4976787;28;20062;-77
2021/12/03 11:17:59;;;;;;;6.35;1.42;;;;;;;13.05;49.81;93438.53;4976579;28;20023;-77
2021/12/03 11:39:10;;;;;;;3.55;1.60;;;;;;;13.26;49.02;93409.34;4981677;28;20397;-77
2021/12/03 11:42:31;;;;;;;9.93;2.03;;;;;;;13.63;48.41;93423.88;4982427;28;20034;-77
2021/12/03 12:18:55;;;;;;;8.30;1.65;;;;;;;13.33;47.72;93429.72;4975409;28;20131;-78
2021/12/03 13:04:00;;;;;;;4.05;1.00;;;;;;;12.50;50.84;93401.81;4974996;28;20042;-78
2021/12/03 13:21:58;;;;;;;7.35;1.20;;;;;;;13.13;49.24;93437.38;4976548;28;20030;-85
2021/12/03 14:00:12;;;;;;;12.45;1.70;;;;;;;12.42;49.85;93463.56;4978482;28;20053;-84
2021/12/03 14:14:40;;;;;;;6.88;1.50;;;;;;;12.63;50.71;93482.72;4980793;28;20122;-89
2021/12/03 14:37:23;;;;;;;8.10;2.22;;;;;;;11.97;51.44;93476.72;4977245;28;20415;-82
2021/12/03 14:39:59;;;;;;;4.05;1.30;;;;;;;12.08;51.08;93477.75;4976850;28;20035;-82
2021/12/03 14:45:14;;;;;;;7.28;1.20;;;;;;;12.18;50.65;93487.72;4976534;28;20014;-80
2021/12/03 14:51:06;;;;;;;8.43;1.77;;;;;;;12.17;51.52;93507.28;4974787;28;20026;-81
2021/12/03 14:56:07;;;;;;;7.43;1.55;;;;;;;12.50;51.64;93470.56;4976203;28;20420;-81
2021/12/03 14:58:45;;;;;;;24.63;13.07;;;;;;;12.40;51.12;93493.28;5009503;28;20527;-84
2021/12/03 15:06:52;;;;;;;4.90;1.10;;;;;;;12.17;51.79;93490.97;4977217;28;20023;-85
2021/12/03 15:09:22;;;;;;;8.15;1.83;;;;;;;12.21;51.97;93506.97;4977433;28;20046;-87
2021/12/03 15:12:27;;;;;;;8.73;2.00;;;;;;;12.03;52.99;93511.25;4977308;28;20042;-86
2021/12/03 15:25:12;;;;;;;11.55;1.55;;;;;;;11.88;53.83;93498.09;4978626;28;20085;-86
2021/12/03 15:33:19;;;;;;;11.07;1.42;;;;;;;11.73;54.60;93512.19;4977472;28;20066;-86
2021/12/03 15:41:24;;;;;;;6.32;1.20;;;;;;;11.70;55.13;93499.59;4976231;28;20037;-83
2021/12/03 16:06:13;;;;;;;6.93;2.42;;;;;;;12.26;53.70;93580.31;5014016;28;20025;-86
2021/12/03 16:08:39;;;;;;;10.10;2.55;;;;;;;11.93;54.62;93574.13;5013918;28;20096;-86
2021/12/03 16:11:36;;;;;;;7.95;2.30;;;;;;;12.30;53.12;93577.28;4989725;28;20031;-86
2021/12/03 16:14:20;;;;;;;11.05;3.25;;;;;;;10.81;64.73;93585.22;4976885;28;20070;-87
2021/12/03 16:46:58;;;;;;;6.35;3.97;;;;;;;7.31;87.17;93628.56;4978755;28;20197;-83
2021/12/03 16:49:56;;;;;;;10.53;4.50;;;;;;;7.01;89.85;93634.34;4975931;28;20102;-83
2021/12/03 16:52:21;;;;;;;8.88;3.83;;;;;;;6.91;90.24;93631.09;4974824;28;20053;-83
2021/12/03 16:54:54;;;;;;;10.50;3.72;;;;;;;6.66;92.11;93638.84;4979225;28;20452;-83
2021/12/03 16:57:19;;;;;;;7.25;3.25;;;;;;;6.64;92.91;93632.44;4978935;28;20069;-84
2021/12/03 16:59:46;;;;;;;6.82;3.35;;;;;;;6.56;93.89;93656.44;4979707;28;20043;-86
2021/12/03 17:02:24;;;;;;;8.52;3.47;;;;;;;6.61;94.37;93671.88;5011627;28;20073;-87
2021/12/03 17:29:10;;;;;;;23.65;11.85;;;;;;;7.00;94.89;93708.41;4974306;28;20392;-82
2021/12/03 17:31:45;;;;;;;9.57;3.95;;;;;;;6.75;94.05;93710.72;4976626;28;20061;-83
2021/12/03 17:48:12;;;;;;;8.20;2.75;;;;;;;5.37;100.00;93718.03;4973363;28;20058;-82
2021/12/03 17:50:43;;;;;;;6.05;3.22;;;;;;;5.48;100.00;93733.56;4974786;28;20023;-83
2021/12/03 18:06:10;;;;;;;3.92;2.90;;;;;;;4.97;100.00;93761.75;4973888;28;20424;-82
2021/12/03 18:48:47;;;;;;;7.82;3.70;;;;;;;4.44;100.00;93793.69;4977369;28;20394;-79
2021/12/03 18:56:47;;;;;;;7.32;4.18;;;;;;;4.05;100.00;93791.09;4977347;28;20404;-83